Airfield :
LOGIN :

Register | Disclaimer

   EN    FR    IT 

 










Legend :    VFR   Marginal VFR   IFR   Intensive IFR   Very Intensive IFR
Visi :
Ceiling :
>= 8 km
>= 3000ft
5 to 8 km
1000 to 3000 ft
1500m to 5 km
500 to 1000 ft
800 to 1500m
200 to 500 ft
< 800m
< 200 ft
Symbols :   Thunderstorms  Fog  Heavy snow  Heavy precipitations  Wind > 20 kt
SIGMETs :     Misc.  Thunderstorms  Icing  Turbulence  Mountain Waves  Volcanic Ashes






- Airport Elevation : 405 ft
- IATA code : ODH


EGVO - RAF Odiham

CURRENT METAR :
  • 241650Z 23023KT 9999 FEW015 BKN180 11/09 Q1004 NOSIG RMK BLU BLU

EXPIRED METARs :
  • 241620Z 23023KT 9999 BKN011 BKN022 11/09 Q1004 BECMG FEW011 BKN022 RMK GRN BECMG WHT
  • 241550Z 23022G32KT 9999 -RADZ BKN008 BKN016 11/10 Q1004 TEMPO 5000 RMK GRN TEMPO GRN
  • 241520Z 22021KT 9999 BKN008 OVC015 11/10 Q1005 TEMPO 4000 RADZ RMK GRN TEMPO GRN
  • 241450Z 22021KT 9999 BKN008 OVC015 11/09 Q1005 TEMPO 4000 RADZ RMK GRN TEMPO GRN
  • 241420Z 22021KT 9999 -DZ BKN010 BKN015 10/09 Q1005 TEMPO 4000 RADZ RMK GRN TEMPO GRN

TAF TAF EGVO
Valid from the 24 at 15:00 until the 25 at 03:00 UTC


241339Z 2415/2503 22016G26KT 9999 BKN015
PROB40
TEMPO 2415/2416 23026G36KT 5000 -RADZ
BECMG 2416/2418 26016G26KT BKN030
BECMG 2418/2421 25014KT



MET'MAP, your aeronautical weather chart ! - Copyright ORBIFLY December 2007 - Disclaimer

ORBIFLY MET'MAP TEAM :

Programming & Development : Alexandra Zaïnal
Concept & original design : Baudouin d'Aumeries
Assistance for programming : Marc-Olivier Méhu
Technical & hardware support : Manuel Goepfert

Contact : metmap@orbifly.com




SOURCES & CREDITS :

   NOAA